Time;durP1;ratioP1;P1;durP2;ratioP2;P2;SDS_P1;SDS_P2;PMS_P1;PMS_P2;Temp;Humidity;BMP_temperature;BMP_pressure;BME280_temperature;BME280_humidity;BME280_pressure;Samples;Min_cycle;Max_cycle;Signal;HPM_P1;HPM_P2
2022/11/10 00:00:31;;;;;;;2.00;1.80;;;;;;;11.39;100.00;154285.41;5030915;28;20577;-87
2022/11/10 00:03:36;;;;;;;2.50;1.90;;;;;;;11.40;100.00;154286.72;5019019;28;20544;-87
2022/11/10 00:06:40;;;;;;;3.33;1.63;;;;;;;11.40;100.00;154286.72;5027266;28;20459;-86
2022/11/10 00:09:44;;;;;;;2.60;1.90;;;;;;;11.36;100.00;154276.34;5023571;28;20443;-87
2022/11/10 00:12:48;;;;;;;2.77;2.20;;;;;;;11.35;100.00;154273.78;5028582;28;20489;-87
2022/11/10 00:19:16;;;;;;;2.83;2.20;;;;;;;11.34;100.00;154272.47;5029905;28;20493;-87
2022/11/10 00:22:20;;;;;;;1.97;1.70;;;;;;;11.33;100.00;154269.84;5012400;28;20427;-87
2022/11/10 00:25:25;;;;;;;3.93;2.70;;;;;;;11.34;100.00;154271.16;5023199;28;20904;-86
2022/11/10 00:28:31;;;;;;;3.20;2.37;;;;;;;11.37;100.00;154278.94;5030002;28;20832;-87
2022/11/10 00:31:38;;;;;;;2.27;2.00;;;;;;;11.36;100.00;154277.63;5028120;28;20895;-87
2022/11/10 00:34:42;;;;;;;3.00;2.70;;;;;;;11.36;100.00;154276.34;5029986;28;20577;-87
2022/11/10 00:37:50;;;;;;;4.23;3.80;;;;;;;11.32;100.00;154266.00;5029138;28;20497;-87
2022/11/10 00:40:54;;;;;;;3.90;3.30;;;;;;;11.32;100.00;154266.00;5019605;28;20489;-87
2022/11/10 00:43:59;;;;;;;3.50;2.53;;;;;;;11.31;100.00;154264.69;5028719;28;20455;-87
2022/11/10 00:47:04;;;;;;;2.77;2.47;;;;;;;11.31;100.00;154263.38;5030799;28;20564;-87
2022/11/10 00:50:09;;;;;;;3.70;2.33;;;;;;;11.27;100.00;154253.03;5029402;28;20529;-87
2022/11/10 00:53:13;;;;;;;2.50;2.30;;;;;;;11.28;100.00;154255.66;5027734;28;20539;-87
2022/11/10 00:56:17;;;;;;;7.77;2.90;;;;;;;11.25;100.00;154247.88;5028532;28;20747;-87
2022/11/10 00:59:22;;;;;;;3.30;2.00;;;;;;;11.22;100.00;154241.41;5029372;28;20435;-87
2022/11/10 01:02:27;;;;;;;3.40;2.50;;;;;;;11.24;100.00;154245.25;5032991;28;20455;-87
2022/11/10 01:05:32;;;;;;;4.77;2.37;;;;;;;11.23;100.00;154242.66;5016325;28;20910;-87
2022/11/10 01:08:36;;;;;;;2.73;1.83;;;;;;;11.21;100.00;154238.78;5031511;28;20556;-87
2022/11/10 01:11:41;;;;;;;2.67;2.20;;;;;;;11.21;100.00;154237.47;5032431;28;20982;-87
2022/11/10 01:14:47;;;;;;;2.40;1.90;;;;;;;11.21;100.00;154237.47;5034698;28;20446;-87
2022/11/10 01:17:53;;;;;;;2.83;2.10;;;;;;;11.21;100.00;154237.47;5028508;28;20497;-87
2022/11/10 01:20:58;;;;;;;4.53;2.53;;;;;;;11.26;100.00;154250.44;5029898;28;20454;-87
2022/11/10 01:24:02;;;;;;;3.60;2.20;;;;;;;11.22;100.00;154240.09;5032046;28;20443;-87
2022/11/10 01:27:06;;;;;;;3.33;2.13;;;;;;;11.18;100.00;154229.72;5034099;28;20443;-87
2022/11/10 01:30:11;;;;;;;4.60;2.77;;;;;;;11.15;100.00;154223.22;5014797;28;20420;-87
2022/11/10 01:33:17;;;;;;;3.40;2.30;;;;;;;11.13;100.00;154216.75;5026481;28;20471;-87
2022/11/10 01:36:21;;;;;;;3.20;2.70;;;;;;;11.13;100.00;154216.75;5033612;28;21060;-87
2022/11/10 01:39:26;;;;;;;5.13;2.47;;;;;;;11.12;100.00;154214.19;5025608;28;20474;-87
2022/11/10 01:42:42;;;;;;;7.10;2.93;;;;;;;11.12;100.00;154214.19;5031167;28;20439;-87
2022/11/10 01:45:51;;;;;;;4.57;2.80;;;;;;;11.09;100.00;154207.72;5025976;28;21083;-87
2022/11/10 01:48:59;;;;;;;3.80;2.10;;;;;;;11.01;100.00;154188.25;5031551;28;20532;-87
2022/11/10 01:52:07;;;;;;;3.80;1.90;;;;;;;11.00;100.00;154185.69;5031620;28;20463;-87
2022/11/10 01:55:11;;;;;;;4.60;2.03;;;;;;;10.95;100.00;154172.75;5031347;28;20965;-87
2022/11/10 01:58:19;;;;;;;4.03;2.70;;;;;;;10.92;100.00;154163.66;5034193;28;20403;-88
2022/11/10 02:01:24;;;;;;;4.77;2.33;;;;;;;10.88;100.00;154154.56;5029645;28;20589;-87
2022/11/10 02:04:30;;;;;;;3.30;2.20;;;;;;;10.86;100.00;154148.09;5023433;28;20463;-87
2022/11/10 02:07:34;;;;;;;5.50;3.13;;;;;;;10.83;100.00;154140.31;5030390;28;20514;-87
2022/11/10 02:10:38;;;;;;;2.53;2.27;;;;;;;10.74;100.00;154118.34;5029801;28;20965;-87
2022/11/10 02:13:43;;;;;;;4.83;1.80;;;;;;;10.72;100.00;154113.13;5029960;28;20513;-87
2022/11/10 02:16:47;;;;;;;4.70;2.50;;;;;;;10.68;100.00;154102.78;5031322;28;20434;-87
2022/11/10 02:19:52;;;;;;;3.33;2.13;;;;;;;10.58;100.00;154075.59;5031513;28;20446;-87
2022/11/10 02:22:58;;;;;;;3.97;2.60;;;;;;;10.49;100.00;154053.59;5031282;28;20801;-87
2022/11/10 02:26:03;;;;;;;5.57;2.30;;;;;;;10.48;100.00;154051.03;5013774;28;20570;-87
2022/11/10 02:29:07;;;;;;;5.10;2.10;;;;;;;10.48;100.00;154049.72;5034800;28;20461;-87
2022/11/10 02:32:11;;;;;;;4.43;2.90;;;;;;;10.44;100.00;154040.63;5032294;28;20973;-87
2022/11/10 02:35:16;;;;;;;6.40;2.70;;;;;;;10.39;100.00;154027.69;5029852;28;20462;-87
2022/11/10 02:38:21;;;;;;;5.00;2.60;;;;;;;10.37;100.00;154022.53;5028176;28;20574;-87
2022/11/10 02:41:25;;;;;;;3.90;2.13;;;;;;;10.34;100.00;154016.06;5016002;28;20513;-87
2022/11/10 02:44:29;;;;;;;4.10;2.60;;;;;;;10.32;100.00;154009.59;5018969;28;20453;-87
2022/11/10 02:47:33;;;;;;;2.83;2.13;;;;;;;10.27;100.00;153996.66;5026684;28;20501;-87
2022/11/10 02:50:38;;;;;;;3.73;2.60;;;;;;;10.25;100.00;153991.44;5031861;28;20467;-87
2022/11/10 02:53:44;;;;;;;4.40;2.40;;;;;;;10.22;100.00;153984.97;5031728;28;20470;-87
2022/11/10 02:56:48;;;;;;;2.40;2.03;;;;;;;10.26;100.00;153994.03;5023017;28;20536;-87
2022/11/10 02:59:52;;;;;;;3.20;1.97;;;;;;;10.26;100.00;153995.34;5022960;28;20567;-87
2022/11/10 03:02:56;;;;;;;3.80;2.77;;;;;;;10.23;100.00;153986.28;5012298;28;20452;-87
2022/11/10 03:06:00;;;;;;;6.50;2.43;;;;;;;10.13;100.00;153961.69;5028855;28;20459;-87
2022/11/10 03:09:06;;;;;;;5.97;2.87;;;;;;;10.14;100.00;153963.00;5032062;28;20461;-87
2022/11/10 03:12:10;;;;;;;2.70;2.40;;;;;;;10.11;100.00;153955.19;5023530;28;20483;-87
2022/11/10 03:15:15;;;;;;;3.80;2.57;;;;;;;10.07;100.00;153944.81;5027082;28;20490;-88
2022/11/10 03:18:19;;;;;;;7.10;2.83;;;;;;;10.06;100.00;153943.50;5031489;28;20403;-87
2022/11/10 03:21:23;;;;;;;3.47;2.63;;;;;;;10.04;100.00;153937.03;5029012;28;20451;-87
2022/11/10 03:24:29;;;;;;;3.90;2.93;;;;;;;10.04;100.00;153937.03;5030045;28;20474;-87
2022/11/10 03:27:33;;;;;;;4.17;3.00;;;;;;;10.00;100.00;153926.69;5026842;28;20447;-87
2022/11/10 03:30:38;;;;;;;3.93;2.30;;;;;;;9.95;100.00;153915.06;5029968;28;20458;-87
2022/11/10 03:33:42;;;;;;;3.07;2.20;;;;;;;9.94;100.00;153912.47;5031147;28;20516;-87
2022/11/10 03:36:46;;;;;;;3.47;2.30;;;;;;;9.95;100.00;153915.06;5013199;28;20435;-87
2022/11/10 03:39:52;;;;;;;3.17;2.50;;;;;;;9.98;100.00;153921.53;5021744;28;20477;-87
2022/11/10 03:42:56;;;;;;;2.60;2.30;;;;;;;10.04;100.00;153937.03;5022018;28;20851;-87
2022/11/10 03:46:00;;;;;;;3.10;2.50;;;;;;;10.06;100.00;153943.50;5027144;28;20475;-87
2022/11/10 03:49:04;;;;;;;4.13;2.53;;;;;;;10.03;100.00;153935.78;5024249;28;21037;-87
2022/11/10 03:52:09;;;;;;;5.03;2.50;;;;;;;10.00;100.00;153928.00;5014152;28;20489;-87
2022/11/10 03:55:17;;;;;;;4.40;2.67;;;;;;;9.99;100.00;153925.38;5030873;28;20451;-87
2022/11/10 03:58:21;;;;;;;5.10;3.00;;;;;;;9.95;100.00;153913.75;5025811;28;20478;-87
2022/11/10 04:01:26;;;;;;;5.07;2.70;;;;;;;9.85;100.00;153887.88;5019707;28;20458;-88
2022/11/10 04:21:18;;;;;;;6.80;2.30;;;;;;;9.63;100.00;153833.53;5022655;28;20522;-88
2022/11/10 04:24:22;;;;;;;5.47;3.00;;;;;;;9.56;100.00;153814.09;5034451;28;20465;-87
2022/11/10 04:27:27;;;;;;;4.10;2.40;;;;;;;9.55;100.00;153811.53;5015186;28;20480;-87
2022/11/10 04:30:31;;;;;;;5.40;2.70;;;;;;;9.53;100.00;153806.38;5029458;28;20808;-88
2022/11/10 04:33:36;;;;;;;4.40;2.43;;;;;;;9.56;100.00;153815.41;5034876;28;20521;-88
2022/11/10 04:36:43;;;;;;;3.57;2.60;;;;;;;9.59;100.00;153821.88;5025269;28;20471;-88
2022/11/10 04:39:48;;;;;;;8.13;2.80;;;;;;;9.55;100.00;153811.53;5028240;28;20456;-87
2022/11/10 04:42:53;;;;;;;5.27;2.50;;;;;;;9.51;100.00;153802.47;5029119;28;20463;-87
2022/11/10 04:45:58;;;;;;;6.77;3.27;;;;;;;9.47;100.00;153790.84;5021690;28;20793;-87
2022/11/10 04:49:03;;;;;;;4.67;2.47;;;;;;;9.44;100.00;153784.38;5034471;28;20879;-87
2022/11/10 04:52:08;;;;;;;3.53;2.30;;;;;;;9.40;100.00;153774.00;5035674;28;20511;-87
2022/11/10 04:55:12;;;;;;;2.87;2.17;;;;;;;9.36;100.00;153763.66;5018958;28;20977;-87
2022/11/10 04:58:18;;;;;;;3.77;2.40;;;;;;;9.32;100.00;153753.31;5032886;28;20523;-87
2022/11/10 05:01:23;;;;;;;12.53;3.20;;;;;;;9.26;100.00;153737.81;5026827;28;20474;-88
2022/11/10 05:04:28;;;;;;;5.30;3.67;;;;;;;9.26;100.00;153736.50;5028323;28;20431;-87
2022/11/10 05:07:32;;;;;;;6.80;3.50;;;;;;;9.21;100.00;153724.88;5030946;28;20467;-87
2022/11/10 05:10:37;;;;;;;6.60;3.07;;;;;;;9.16;100.00;153713.22;5029109;28;20981;-87
2022/11/10 05:13:43;;;;;;;3.10;2.60;;;;;;;9.14;100.00;153708.03;5025284;28;20991;-88
2022/11/10 05:16:47;;;;;;;4.20;2.60;;;;;;;9.08;100.00;153691.25;5031350;28;20493;-88
2022/11/10 05:19:51;;;;;;;2.93;2.53;;;;;;;9.03;100.00;153679.59;5028667;28;20462;-87
2022/11/10 05:26:18;;;;;;;3.30;2.43;;;;;;;8.93;100.00;153653.72;5015230;28;20475;-87
2022/11/10 05:29:23;;;;;;;3.50;2.40;;;;;;;8.91;100.00;153647.28;5027594;28;20477;-87
2022/11/10 05:32:28;;;;;;;11.70;3.20;;;;;;;8.90;100.00;153644.66;5014435;28;20462;-87
2022/11/10 05:35:32;;;;;;;5.00;2.60;;;;;;;8.87;100.00;153636.94;5014979;28;20423;-87
2022/11/10 05:38:36;;;;;;;3.70;2.37;;;;;;;8.84;100.00;153629.19;5023164;28;20439;-87
2022/11/10 05:41:40;;;;;;;5.80;2.73;;;;;;;8.77;100.00;153612.34;5024259;28;20891;-87
2022/11/10 05:44:46;;;;;;;5.57;2.40;;;;;;;8.75;100.00;153605.91;5023874;28;20469;-87
2022/11/10 05:47:50;;;;;;;5.53;3.60;;;;;;;8.73;100.00;153600.72;5028894;28;21048;-87
2022/11/10 05:50:55;;;;;;;4.03;3.10;;;;;;;8.70;100.00;153594.28;5029636;28;20490;-86
2022/11/10 05:53:59;;;;;;;4.13;2.60;;;;;;;8.66;100.00;153582.66;5029491;28;20462;-87
2022/11/10 05:57:03;;;;;;;3.37;2.63;;;;;;;8.67;100.00;153585.22;5014604;28;20526;-88
2022/11/10 06:00:11;;;;;;;4.40;2.90;;;;;;;8.65;100.00;153580.03;5013864;28;20516;-87
2022/11/10 06:03:16;;;;;;;3.10;2.73;;;;;;;8.60;100.00;153567.13;5018685;28;20953;-87
2022/11/10 06:06:21;;;;;;;3.27;2.87;;;;;;;8.59;100.00;153565.81;5031346;28;20501;-87
2022/11/10 06:09:25;;;;;;;4.20;2.70;;;;;;;8.53;100.00;153551.59;5013975;28;20462;-87
2022/11/10 06:12:30;;;;;;;4.50;3.00;;;;;;;8.49;100.00;153541.28;5012911;28;20514;-88
2022/11/10 06:15:36;;;;;;;3.23;2.90;;;;;;;8.49;100.00;153541.28;5013412;28;20447;-87
2022/11/10 06:18:40;;;;;;;4.80;3.23;;;;;;;8.43;100.00;153524.47;5004136;28;20514;-87
2022/11/10 06:21:44;;;;;;;9.03;3.17;;;;;;;8.40;100.00;153516.69;5011387;28;20424;-87
2022/11/10 06:24:48;;;;;;;8.50;3.60;;;;;;;8.37;100.00;153510.22;5011157;28;20427;-87
2022/11/10 06:27:52;;;;;;;4.37;3.37;;;;;;;8.39;100.00;153514.13;4994269;28;20425;-87
2022/11/10 06:30:58;;;;;;;4.40;3.13;;;;;;;8.38;100.00;153512.84;5014007;28;20528;-87
2022/11/10 06:34:03;;;;;;;3.87;3.30;;;;;;;8.35;100.00;153503.78;5011142;28;20515;-87
2022/11/10 06:37:07;;;;;;;5.03;3.43;;;;;;;8.31;100.00;153493.47;5012687;28;20451;-87
2022/11/10 06:40:12;;;;;;;5.20;4.03;;;;;;;8.34;100.00;153501.22;4997717;28;20431;-87
2022/11/10 06:43:16;;;;;;;3.87;3.47;;;;;;;8.35;100.00;153503.78;5012275;28;20442;-87
2022/11/10 06:46:22;;;;;;;6.30;3.63;;;;;;;8.48;100.00;153538.69;5011087;28;20455;-87
2022/11/10 06:49:26;;;;;;;6.13;4.00;;;;;;;8.70;100.00;153592.97;5010366;28;20486;-87
2022/11/10 06:52:31;;;;;;;7.07;3.60;;;;;;;8.93;100.00;153652.44;5013029;28;20431;-87
2022/11/10 06:55:35;;;;;;;4.40;3.67;;;;;;;9.18;100.00;153717.13;5007288;28;20436;-88
2022/11/10 06:58:39;;;;;;;7.57;4.27;;;;;;;9.44;100.00;153783.06;4999376;28;20428;-87
2022/11/10 07:01:45;;;;;;;3.63;3.20;;;;;;;9.73;100.00;153859.41;5006898;28;20404;-88
2022/11/10 07:04:50;;;;;;;4.10;3.70;;;;;;;10.12;100.00;153957.72;5010328;28;20483;-88
2022/11/10 07:07:55;;;;;;;5.47;3.90;;;;;;;10.47;100.00;154047.13;5017093;28;20620;-88
2022/11/10 07:10:59;;;;;;;4.47;3.50;;;;;;;10.77;100.00;154126.13;5015723;28;20841;-88
2022/11/10 07:14:03;;;;;;;3.90;3.10;;;;;;;10.93;100.00;154166.28;5021495;28;20466;-89
2022/11/10 07:17:08;;;;;;;4.23;3.50;;;;;;;11.07;100.00;154201.25;5031688;28;20450;-88
2022/11/10 07:20:13;;;;;;;5.50;3.20;;;;;;;11.08;100.00;154203.81;5021914;28;20427;-88
2022/11/10 07:23:17;;;;;;;5.43;3.70;;;;;;;11.28;100.00;154255.66;5033026;28;20462;-87
2022/11/10 07:26:21;;;;;;;4.53;3.30;;;;;;;11.50;100.00;154312.63;5033122;28;20451;-86
2022/11/10 07:29:26;;;;;;;3.97;3.37;;;;;;;11.67;100.00;154356.72;5029590;28;20428;-86
2022/11/10 07:32:31;;;;;;;5.27;2.60;;;;;;;11.65;100.00;154351.50;5014572;28;21000;-77
2022/11/10 07:35:35;;;;;;;3.80;2.67;;;;;;;11.53;100.00;154321.72;5029453;28;20434;-77
2022/11/10 07:38:39;;;;;;;5.73;3.10;;;;;;;11.64;100.00;154348.94;5010471;28;20482;-77
2022/11/10 07:41:44;;;;;;;3.80;2.63;;;;;;;11.63;100.00;154347.63;5016076;28;20450;-77
2022/11/10 07:44:48;;;;;;;3.27;2.50;;;;;;;11.65;100.00;154350.22;5025721;28;20443;-77
2022/11/10 07:47:58;;;;;;;4.30;2.47;;;;;;;11.69;100.00;154361.94;5012417;28;20459;-77
2022/11/10 07:51:02;;;;;;;2.67;2.40;;;;;;;11.72;100.00;154369.72;5025692;28;20876;-77
2022/11/10 07:54:06;;;;;;;4.77;3.20;;;;;;;11.64;100.00;154348.94;5032734;28;21032;-76
2022/11/10 07:57:10;;;;;;;2.70;2.27;;;;;;;11.66;100.00;154352.78;5034848;28;20439;-77
2022/11/10 08:00:16;;;;;;;2.53;2.20;;;;;;;11.59;100.00;154335.97;5032724;28;20502;-76
2022/11/10 08:03:22;;;;;;;3.47;2.83;;;;;;;11.56;100.00;154328.19;5024686;28;20543;-76
2022/11/10 08:06:26;;;;;;;3.60;2.77;;;;;;;11.63;100.00;154346.31;5016386;28;20468;-76
2022/11/10 08:09:30;;;;;;;5.33;2.73;;;;;;;11.57;100.00;154332.06;5029526;28;20501;-77
2022/11/10 08:12:34;;;;;;;4.70;2.67;;;;;;;11.59;100.00;154335.97;5032752;28;20512;-77
2022/11/10 08:15:39;;;;;;;4.07;2.40;;;;;;;11.55;100.00;154326.88;5035517;28;20423;-77
2022/11/10 08:18:45;;;;;;;5.47;2.83;;;;;;;11.61;100.00;154341.16;5028330;28;20803;-76
2022/11/10 08:21:49;;;;;;;2.67;1.93;;;;;;;11.59;100.00;154335.97;5033288;28;20450;-77
2022/11/10 08:24:53;;;;;;;5.43;2.70;;;;;;;11.65;100.00;154351.50;5036323;28;20763;-76
2022/11/10 08:27:59;;;;;;;5.00;2.47;;;;;;;11.71;100.00;154365.81;5027680;28;20535;-77
2022/11/10 08:31:03;;;;;;;4.50;2.40;;;;;;;11.75;100.00;154377.50;5028772;28;20512;-77
2022/11/10 08:34:09;;;;;;;5.60;2.90;;;;;;;11.83;100.00;154396.94;5035316;28;20957;-76
2022/11/10 08:37:14;;;;;;;5.20;3.00;;;;;;;11.90;100.00;154415.06;5032090;28;20466;-77
2022/11/10 08:40:19;;;;;;;4.30;2.83;;;;;;;11.94;100.00;154426.72;5030190;28;20794;-77
2022/11/10 08:43:23;;;;;;;2.73;2.33;;;;;;;11.95;100.00;154429.31;5035913;28;20503;-77
2022/11/10 08:46:26;;;;;;;2.77;2.30;;;;;;;11.94;100.00;154426.72;5020457;28;20582;-77
2022/11/10 08:49:32;;;;;;;5.47;3.00;;;;;;;11.89;100.00;154413.75;5031023;28;20961;-77
2022/11/10 08:52:36;;;;;;;5.70;2.60;;;;;;;11.87;100.00;154408.56;5033067;28;20513;-77
2022/11/10 08:55:40;;;;;;;2.60;2.10;;;;;;;11.82;100.00;154395.63;5033822;28;20640;-76
2022/11/10 08:58:44;;;;;;;6.30;2.73;;;;;;;11.82;100.00;154394.31;5022394;28;20463;-76
2022/11/10 09:01:48;;;;;;;4.10;2.73;;;;;;;11.80;100.00;154389.16;5026259;28;20447;-77
2022/11/10 09:04:54;;;;;;;3.33;2.43;;;;;;;11.86;100.00;154404.72;5007459;28;20589;-76
2022/11/10 09:07:58;;;;;;;3.20;2.20;;;;;;;11.90;100.00;154415.06;5032913;28;20479;-77
2022/11/10 09:11:03;;;;;;;4.10;2.40;;;;;;;11.89;100.00;154412.44;5022590;28;20451;-76
2022/11/10 09:14:07;;;;;;;2.50;2.20;;;;;;;11.85;100.00;154403.41;5014852;28;20507;-77
2022/11/10 09:17:12;;;;;;;2.30;2.00;;;;;;;11.93;100.00;154424.16;5032925;28;20546;-76
2022/11/10 09:20:17;;;;;;;3.90;2.53;;;;;;;11.97;100.00;154434.50;5014730;28;20436;-77
2022/11/10 09:23:23;;;;;;;5.03;2.57;;;;;;;11.97;100.00;154433.19;5023796;28;20456;-77
2022/11/10 09:26:27;;;;;;;4.50;2.80;;;;;;;11.97;100.00;154434.50;5030078;28;20415;-77
2022/11/10 09:29:31;;;;;;;3.87;2.20;;;;;;;12.11;100.00;154469.50;5026659;28;20478;-76
2022/11/10 09:32:35;;;;;;;2.60;2.30;;;;;;;12.10;100.00;154468.19;5033598;28;20423;-76
2022/11/10 09:35:42;;;;;;;2.83;2.13;;;;;;;12.12;100.00;154472.13;5030902;28;20451;-77
2022/11/10 09:38:46;;;;;;;3.30;2.50;;;;;;;12.37;100.00;154535.59;5034606;28;20463;-77
2022/11/10 09:41:50;;;;;;;4.13;2.60;;;;;;;12.28;100.00;154512.31;5034295;28;20482;-77
2022/11/10 09:44:59;;;;;;;4.67;2.73;;;;;;;12.21;100.00;154496.72;5021060;28;20897;-77
2022/11/10 09:48:07;;;;;;;3.00;1.93;;;;;;;12.18;100.00;154487.63;5023874;28;20945;-77
2022/11/10 09:51:16;;;;;;;2.97;2.30;;;;;;;12.19;100.00;154491.56;5027030;28;20447;-77
2022/11/10 09:54:28;;;;;;;1.87;1.50;;;;;;;12.21;100.00;154496.72;5010612;28;20564;-77
2022/11/10 09:57:32;;;;;;;3.00;1.60;;;;;;;12.19;100.00;154490.25;5024144;28;20498;-77
2022/11/10 10:00:37;;;;;;;2.00;1.37;;;;;;;12.12;100.00;154473.41;5027659;28;20459;-77
2022/11/10 10:03:46;;;;;;;2.57;1.60;;;;;;;12.13;100.00;154475.97;5028378;28;20443;-77
2022/11/10 10:06:56;;;;;;;2.90;1.67;;;;;;;12.18;100.00;154488.94;5031951;28;21013;-77
2022/11/10 10:10:03;;;;;;;2.23;1.20;;;;;;;12.15;100.00;154481.16;5032852;28;20486;-77
2022/11/10 10:13:23;;;;;;;2.87;1.40;;;;;;;12.23;100.00;154499.34;5034353;28;20493;-77
2022/11/10 10:16:33;;;;;;;3.10;1.33;;;;;;;12.18;100.00;154488.94;5031725;28;20954;-77
2022/11/10 10:19:56;;;;;;;1.43;1.30;;;;;;;12.14;100.00;154478.59;5031399;28;20447;-76
2022/11/10 10:23:08;;;;;;;3.73;1.90;;;;;;;12.15;100.00;154481.16;5027394;28;20466;-77
2022/11/10 10:26:13;;;;;;;1.60;1.10;;;;;;;12.14;100.00;154478.59;5028600;28;20499;-77
2022/11/10 10:29:20;;;;;;;2.43;1.10;;;;;;;11.99;95.15;154439.66;5026568;28;20444;-76
2022/11/10 10:32:26;;;;;;;2.80;1.20;;;;;;;12.15;96.55;154481.16;5033195;28;20478;-76
2022/11/10 10:35:30;;;;;;;1.50;1.00;;;;;;;12.19;93.79;154491.56;5031092;28;20483;-76
2022/11/10 10:38:38;;;;;;;1.83;1.23;;;;;;;12.23;94.23;154499.34;5014628;28;20436;-77
2022/11/10 10:41:45;;;;;;;2.10;1.17;;;;;;;12.15;93.69;154481.16;5013885;28;20405;-77
2022/11/10 10:45:15;;;;;;;2.10;1.13;;;;;;;12.22;94.91;154498.03;5031981;28;20423;-77
2022/11/10 10:48:25;;;;;;;2.83;1.20;;;;;;;12.19;94.29;154491.56;5025491;28;20550;-77
2022/11/10 10:51:30;;;;;;;5.63;1.10;;;;;;;12.23;96.49;154499.34;5031873;28;20439;-76
2022/11/10 10:54:37;;;;;;;2.73;1.20;;;;;;;12.20;94.47;154494.13;5024929;28;20495;-77
2022/11/10 10:57:50;;;;;;;2.30;1.03;;;;;;;12.11;95.11;154470.81;5033109;28;20484;-76
2022/11/10 11:00:58;;;;;;;2.40;1.23;;;;;;;12.09;92.75;154464.31;5031666;28;21149;-77
2022/11/10 11:04:06;;;;;;;2.57;1.30;;;;;;;12.19;93.60;154491.56;5033480;28;20450;-76
2022/11/10 11:07:21;;;;;;;1.50;1.00;;;;;;;12.13;94.75;154474.66;5032479;28;20517;-76
2022/11/10 11:10:28;;;;;;;3.63;1.07;;;;;;;12.11;93.73;154470.81;5020494;28;20440;-76
2022/11/10 11:13:33;;;;;;;4.17;1.00;;;;;;;12.10;94.17;154468.19;5031737;28;20934;-77
2022/11/10 11:16:46;;;;;;;1.90;0.83;;;;;;;12.09;92.56;154464.31;5018895;28;20434;-76
2022/11/10 11:19:51;;;;;;;3.70;1.27;;;;;;;12.04;91.61;154452.69;5024804;28;20535;-76
2022/11/10 11:22:56;;;;;;;2.37;1.13;;;;;;;12.07;90.87;154460.41;5030028;28;21099;-78
2022/11/10 11:26:09;;;;;;;4.00;0.70;;;;;;;12.18;90.74;154487.63;5025294;28;20427;-78
2022/11/10 11:29:26;;;;;;;1.87;1.00;;;;;;;12.23;89.41;154500.66;5030702;28;20451;-78
2022/11/10 11:32:59;;;;;;;1.37;1.00;;;;;;;12.43;82.10;154552.50;5032405;28;20490;-78
2022/11/10 11:36:12;;;;;;;1.87;0.87;;;;;;;12.54;84.47;154579.72;5032902;28;21189;-76
2022/11/10 11:39:30;;;;;;;2.50;1.00;;;;;;;12.53;86.44;154578.41;5030930;28;20431;-76
2022/11/10 11:42:49;;;;;;;4.00;1.30;;;;;;;12.54;87.76;154581.03;5030666;28;20473;-78
2022/11/10 11:45:56;;;;;;;1.73;1.10;;;;;;;12.62;86.68;154600.47;5014019;28;20458;-78
2022/11/10 11:49:16;;;;;;;3.47;1.17;;;;;;;12.63;88.36;154603.03;5023005;28;20450;-78
2022/11/10 11:52:27;;;;;;;4.00;1.03;;;;;;;12.61;86.79;154597.84;5029547;28;20447;-78
2022/11/10 11:55:45;;;;;;;3.40;1.27;;;;;;;12.52;88.30;154574.53;5028835;28;20517;-78
2022/11/10 11:58:59;;;;;;;1.80;1.23;;;;;;;12.62;90.01;154601.78;5030055;28;20455;-78
2022/11/10 12:02:27;;;;;;;4.50;1.20;;;;;;;12.70;92.73;154621.22;5016406;28;20475;-78
2022/11/10 12:05:41;;;;;;;2.50;1.27;;;;;;;12.76;91.24;154636.81;5029884;28;20845;-78
2022/11/10 12:08:53;;;;;;;4.90;1.90;;;;;;;12.80;89.21;154648.47;5017275;28;20498;-78
2022/11/10 12:12:06;;;;;;;1.80;0.90;;;;;;;12.73;87.45;154629.00;5029232;28;20543;-77
2022/11/10 12:15:24;;;;;;;1.50;1.20;;;;;;;12.77;88.67;154640.66;5030003;28;20509;-77
2022/11/10 12:18:31;;;;;;;2.53;1.50;;;;;;;12.77;88.44;154640.66;5029421;28;20512;-77
2022/11/10 12:21:40;;;;;;;4.43;1.50;;;;;;;12.76;88.78;154638.06;5023034;28;20531;-77
2022/11/10 12:24:53;;;;;;;2.30;1.10;;;;;;;12.86;89.05;154662.72;5023277;28;20464;-78
2022/11/10 12:28:02;;;;;;;2.90;1.30;;;;;;;12.82;87.90;154652.31;5028177;28;20938;-77
2022/11/10 12:31:13;;;;;;;1.90;1.03;;;;;;;12.73;88.26;154629.00;5029073;28;20431;-77
2022/11/10 12:34:22;;;;;;;4.10;2.80;;;;;;;12.74;87.65;154632.88;5011724;28;20542;-77
2022/11/10 12:37:29;;;;;;;2.73;1.40;;;;;;;12.69;87.62;154618.63;5028322;28;20523;-77
2022/11/10 12:40:37;;;;;;;2.17;1.03;;;;;;;12.63;89.37;154604.34;5025220;28;20514;-77
2022/11/10 12:43:56;;;;;;;1.57;0.90;;;;;;;12.60;88.43;154595.28;5018237;28;20512;-78
2022/11/10 12:47:05;;;;;;;2.70;1.77;;;;;;;12.62;88.27;154600.47;5026753;28;20435;-78
2022/11/10 12:50:20;;;;;;;2.00;1.00;;;;;;;12.63;87.79;154603.03;5028580;28;20579;-77
2022/11/10 12:53:26;;;;;;;1.80;1.10;;;;;;;12.64;87.51;154605.66;5025600;28;20497;-77
2022/11/10 12:56:34;;;;;;;6.00;1.83;;;;;;;12.59;87.69;154592.69;5035425;28;20451;-77
2022/11/10 12:59:40;;;;;;;2.07;1.07;;;;;;;12.65;87.48;154609.56;5033467;28;20482;-77
2022/11/10 13:02:46;;;;;;;1.90;1.43;;;;;;;12.60;88.07;154596.56;5035432;28;20466;-77
2022/11/10 13:05:55;;;;;;;1.83;1.00;;;;;;;12.63;87.62;154604.34;5033468;28;20458;-77
2022/11/10 13:08:59;;;;;;;4.03;1.63;;;;;;;12.67;90.03;154614.75;5030013;28;20538;-77
2022/11/10 13:12:06;;;;;;;2.97;0.93;;;;;;;12.68;86.63;154616.03;5028063;28;20458;-78
2022/11/10 13:15:49;;;;;;;3.47;1.30;;;;;;;12.62;88.27;154600.47;5033131;28;20610;-78
2022/11/10 13:18:55;;;;;;;2.77;1.40;;;;;;;12.68;85.99;154616.03;5032024;28;20454;-77
2022/11/10 13:22:12;;;;;;;1.90;1.03;;;;;;;12.86;85.77;154661.44;5027638;28;20531;-77
2022/11/10 13:25:59;;;;;;;2.20;1.20;;;;;;;12.76;85.75;154638.06;5020814;28;20473;-77
2022/11/10 13:29:20;;;;;;;1.10;0.70;;;;;;;12.74;88.43;154631.56;5021885;28;20448;-77
2022/11/10 13:32:29;;;;;;;2.43;1.00;;;;;;;12.64;88.52;154605.66;5014358;28;20927;-77
2022/11/10 13:35:54;;;;;;;3.23;0.97;;;;;;;12.73;85.90;154629.00;5019203;28;20844;-77
2022/11/10 13:39:16;;;;;;;2.63;1.00;;;;;;;12.59;85.28;154592.69;5033296;28;20450;-77
2022/11/10 13:42:22;;;;;;;1.73;0.90;;;;;;;12.69;82.71;154618.63;5022018;28;20929;-77
2022/11/10 13:45:28;;;;;;;2.60;0.77;;;;;;;12.64;82.80;154605.66;5028923;28;20463;-78
2022/11/10 13:48:40;;;;;;;2.50;0.93;;;;;;;12.63;84.83;154603.03;5034404;28;20594;-77
2022/11/10 13:51:54;;;;;;;1.10;0.80;;;;;;;12.55;84.76;154582.34;5033879;28;20404;-77
2022/11/10 13:55:12;;;;;;;1.27;0.60;;;;;;;12.51;85.90;154571.94;5030110;28;20463;-77
2022/11/10 13:58:24;;;;;;;2.27;0.90;;;;;;;12.45;85.39;154556.34;5013662;28;20587;-77
2022/11/10 14:01:29;;;;;;;1.40;0.77;;;;;;;12.43;85.08;154552.50;5026440;28;20427;-77
2022/11/10 14:04:39;;;;;;;4.00;0.90;;;;;;;12.38;87.82;154538.22;5030711;28;20538;-77
2022/11/10 14:07:46;;;;;;;3.47;1.20;;;;;;;12.36;86.23;154533.03;5033731;28;20470;-77
2022/11/10 14:10:52;;;;;;;2.70;0.83;;;;;;;12.31;86.97;154520.09;5029870;28;20497;-77
2022/11/10 14:14:00;;;;;;;5.10;1.03;;;;;;;12.28;88.80;154513.59;5029517;28;20485;-77
2022/11/10 14:17:04;;;;;;;2.23;0.93;;;;;;;12.25;87.28;154504.50;5032098;28;20447;-77
2022/11/10 14:20:22;;;;;;;1.93;1.17;;;;;;;12.22;87.23;154498.03;5026459;28;20927;-77
2022/11/10 14:23:33;;;;;;;2.10;1.17;;;;;;;12.20;88.10;154494.13;5029706;28;20983;-78
2022/11/10 14:26:42;;;;;;;2.17;0.70;;;;;;;12.19;87.91;154491.56;5025707;28;21043;-77
2022/11/10 14:29:46;;;;;;;1.40;0.93;;;;;;;12.16;89.17;154482.47;5014132;28;20810;-77
2022/11/10 14:33:02;;;;;;;3.17;1.30;;;;;;;12.14;88.38;154477.28;5025724;28;20466;-77
2022/11/10 14:36:07;;;;;;;1.87;0.90;;;;;;;12.12;92.07;154473.41;5031674;28;20887;-77
2022/11/10 14:39:15;;;;;;;2.83;1.17;;;;;;;12.05;94.18;154455.25;5032528;28;20447;-77
2022/11/10 14:42:22;;;;;;;2.93;0.83;;;;;;;12.05;90.21;154453.94;5033345;28;21107;-77
2022/11/10 14:45:27;;;;;;;2.30;1.10;;;;;;;12.03;91.41;154450.06;5033128;28;20539;-77
2022/11/10 14:48:33;;;;;;;1.83;0.87;;;;;;;12.01;89.76;154444.91;5030646;28;20463;-77